Terminal Aerodrome Forecast
Issued by NWS Quad Cities IA IL

Home | Current Version | Previous Version | Text Only | Print | Product List | Glossary On
Versions: 1 2 3 4 5 6 7 8 9 10 11 12 13 14 15 16 17 18 19 20 21
574
FTUS43 KDVN 241136
TAFMLI
TAF
KMLI 241136Z 2412/2512 15005KT P6SM VCSH SCT015 BKN035
      TEMPO 2412/2415 6SM -RA BR BKN025
     FM241500 23007KT P6SM SCT020 BKN100
      TEMPO 2415/2418 BKN020
     FM242200 20007KT P6SM VCTS SCT025CB BKN035
     FM250200 VRB04KT 3SM TSRA BR BKN015CB
     FM250900 34006KT 6SM -SHRA BR BKN025=

USA.gov is the U.S. government's official web portal to all federal, state and local government web resources and services.